Time;durP1;ratioP1;P1;durP2;ratioP2;P2;SDS_P1;SDS_P2;PMS_P1;PMS_P2;Temp;Humidity;BMP_temperature;BMP_pressure;BME280_temperature;BME280_humidity;BME280_pressure;Samples;Min_cycle;Max_cycle;Signal;HPM_P1;HPM_P2
2021/03/12 00:00:36;;;;;;;12.15;8.00;;;12.30;96.70;;;;;;4995250;28;20048;-73
2021/03/12 00:03:11;;;;;;;13.00;8.95;;;12.40;96.70;;;;;;5001812;28;20510;-74
2021/03/12 00:05:41;;;;;;;12.88;8.80;;;12.50;96.70;;;;;;4996743;28;20053;-74
2021/03/12 00:08:09;;;;;;;12.70;8.95;;;12.50;96.70;;;;;;4995376;28;20042;-73
2021/03/12 00:10:36;;;;;;;10.98;8.68;;;12.60;96.70;;;;;;4994188;28;20049;-74
2021/03/12 00:13:06;;;;;;;13.82;9.45;;;12.50;96.70;;;;;;4997048;28;20073;-74
2021/03/12 00:15:33;;;;;;;12.90;9.77;;;12.50;96.70;;;;;;4993460;28;20142;-74
2021/03/12 00:18:01;;;;;;;12.55;10.40;;;12.50;96.70;;;;;;4996398;28;20050;-74
2021/03/12 00:20:31;;;;;;;14.95;11.45;;;12.60;96.70;;;;;;4994479;28;20038;-74
2021/03/12 00:22:59;;;;;;;13.55;10.60;;;12.60;96.70;;;;;;4990930;28;20179;-73
2021/03/12 00:25:32;;;;;;;12.93;10.55;;;12.70;96.70;;;;;;4995836;28;20727;-74
2021/03/12 00:27:59;;;;;;;17.48;12.13;;;12.70;96.70;;;;;;4995047;28;20034;-74
2021/03/12 00:30:27;;;;;;;13.93;11.35;;;12.70;96.70;;;;;;4996876;28;20046;-73
2021/03/12 00:32:54;;;;;;;16.45;12.00;;;12.70;96.70;;;;;;4993790;28;20483;-74
2021/03/12 00:35:22;;;;;;;13.75;11.52;;;12.70;96.70;;;;;;4997460;28;20034;-74
2021/03/12 00:37:50;;;;;;;16.55;12.88;;;12.70;96.70;;;;;;4978991;28;20158;-74
2021/03/12 00:40:21;;;;;;;15.88;11.88;;;12.70;96.70;;;;;;5003000;28;20419;-74
2021/03/12 00:42:49;;;;;;;15.40;12.43;;;12.70;96.70;;;;;;4996581;28;20042;-74
2021/03/12 00:45:18;;;;;;;14.38;11.02;;;12.70;96.70;;;;;;4992679;28;20046;-74
2021/03/12 00:47:47;;;;;;;14.75;12.05;;;12.70;96.70;;;;;;4991322;28;20049;-74
2021/03/12 00:50:22;;;;;;;15.00;9.48;;;12.70;96.70;;;;;;4985049;28;20050;-74
2021/03/12 00:52:51;;;;;;;12.23;9.05;;;12.70;96.70;;;;;;5016396;28;20492;-74
2021/03/12 00:55:19;;;;;;;11.57;7.95;;;12.70;96.70;;;;;;4994551;28;20041;-74
2021/03/12 00:57:50;;;;;;;9.10;6.70;;;12.60;96.70;;;;;;4990718;28;20042;-73
2021/03/12 01:00:21;;;;;;;8.35;6.40;;;12.60;96.70;;;;;;4995985;28;20044;-74
2021/03/12 01:02:48;;;;;;;11.07;6.30;;;12.60;96.70;;;;;;4991984;28;20435;-74
2021/03/12 01:05:16;;;;;;;8.25;6.13;;;12.60;96.70;;;;;;4990874;28;20173;-73
2021/03/12 01:07:44;;;;;;;7.75;5.43;;;12.60;96.70;;;;;;4992464;28;20347;-74
2021/03/12 01:10:16;;;;;;;8.48;5.07;;;12.60;96.70;;;;;;4988264;28;20042;-74
2021/03/12 01:12:44;;;;;;;11.52;5.10;;;12.60;96.70;;;;;;4995081;28;20526;-73
2021/03/12 01:15:15;;;;;;;8.55;4.80;;;12.60;96.70;;;;;;4989988;28;20066;-73
2021/03/12 01:17:43;;;;;;;6.88;4.55;;;12.60;96.70;;;;;;4979834;28;20109;-74
2021/03/12 01:20:14;;;;;;;5.70;4.22;;;12.60;96.70;;;;;;4992672;28;20135;-74
2021/03/12 01:22:42;;;;;;;7.22;4.05;;;12.60;96.70;;;;;;4992074;28;20046;-73
2021/03/12 01:25:12;;;;;;;7.28;3.97;;;12.60;96.70;;;;;;4995073;28;20598;-73
2021/03/12 01:27:41;;;;;;;7.72;4.13;;;12.70;96.70;;;;;;4995479;28;20050;-73
2021/03/12 01:30:15;;;;;;;5.40;3.97;;;12.70;96.70;;;;;;4998693;28;20045;-73
2021/03/12 01:32:43;;;;;;;6.22;3.92;;;12.70;96.70;;;;;;4981257;28;20568;-73
2021/03/12 01:35:12;;;;;;;8.85;4.45;;;12.80;96.70;;;;;;4991717;28;20072;-73
2021/03/12 01:37:39;;;;;;;7.53;3.90;;;12.80;96.70;;;;;;4995740;28;20526;-73
2021/03/12 01:40:10;;;;;;;7.75;4.25;;;12.80;96.70;;;;;;4992260;28;20108;-72
2021/03/12 01:42:54;;;;;;;6.07;3.60;;;12.80;96.70;;;;;;4994587;28;20740;-73
2021/03/12 01:45:26;;;;;;;8.40;3.83;;;12.70;96.70;;;;;;4999396;28;20054;-73
2021/03/12 01:47:58;;;;;;;7.30;4.05;;;12.70;96.70;;;;;;4993302;28;20069;-73
2021/03/12 01:50:27;;;;;;;7.65;3.40;;;12.70;96.70;;;;;;4990235;28;20052;-73
2021/03/12 01:52:55;;;;;;;6.40;3.97;;;12.70;96.70;;;;;;4995254;28;20042;-73
2021/03/12 01:55:30;;;;;;;5.45;3.20;;;12.70;96.70;;;;;;4973641;28;20455;-73
2021/03/12 01:57:59;;;;;;;4.63;3.28;;;12.60;96.70;;;;;;4991586;28;20141;-73
2021/03/12 02:00:35;;;;;;;6.22;3.25;;;12.60;96.70;;;;;;4993632;28;20046;-73
2021/03/12 02:03:14;;;;;;;8.25;3.50;;;12.60;96.70;;;;;;4989491;28;20048;-73
2021/03/12 02:05:50;;;;;;;7.80;3.53;;;12.60;96.70;;;;;;4994656;28;20049;-74
2021/03/12 02:08:17;;;;;;;5.68;3.58;;;12.60;96.70;;;;;;4991825;28;20152;-73
2021/03/12 02:10:54;;;;;;;;;;;12.60;96.70;;;;;;4996422;28;20069;-74
2021/03/12 02:13:32;;;;;;;4.93;2.85;;;12.60;96.70;;;;;;4990758;28;19926;-74
2021/03/12 02:16:08;;;;;;;6.18;3.22;;;12.60;96.70;;;;;;4994240;28;20050;-73
2021/03/12 02:18:48;;;;;;;4.78;2.90;;;12.60;96.70;;;;;;4992475;28;20084;-73
2021/03/12 02:21:22;;;;;;;5.00;2.83;;;12.60;96.70;;;;;;4997151;28;20144;-73
2021/03/12 02:23:59;;;;;;;4.82;2.75;;;12.60;96.70;;;;;;4993733;28;20503;-73
2021/03/12 02:26:38;;;;;;;5.68;2.88;;;12.60;96.70;;;;;;4992130;28;20443;-74
2021/03/12 02:29:19;;;;;;;5.95;3.00;;;12.60;96.70;;;;;;4996267;28;20514;-73
2021/03/12 02:31:51;;;;;;;7.05;3.10;;;12.60;96.70;;;;;;4995904;28;20423;-73
2021/03/12 02:34:21;;;;;;;6.03;2.70;;;12.60;96.70;;;;;;4990301;28;20037;-73
2021/03/12 02:36:57;;;;;;;5.93;3.00;;;12.60;96.70;;;;;;4994131;28;20034;-73
2021/03/12 02:39:27;;;;;;;6.55;3.15;;;12.50;96.70;;;;;;4993665;28;20483;-73
2021/03/12 02:41:59;;;;;;;6.35;2.90;;;12.50;96.70;;;;;;4983498;28;20142;-74
2021/03/12 02:44:35;;;;;;;7.32;3.00;;;12.50;96.70;;;;;;4973449;28;20053;-73
2021/03/12 02:47:11;;;;;;;6.88;2.50;;;12.60;96.70;;;;;;4996927;28;20088;-73
2021/03/12 02:49:40;;;;;;;5.28;2.85;;;12.60;96.70;;;;;;4988884;28;20097;-73
2021/03/12 02:52:08;;;;;;;7.95;2.80;;;12.60;96.70;;;;;;4997145;28;20042;-73
2021/03/12 02:54:36;;;;;;;6.25;2.70;;;12.60;96.70;;;;;;5002058;28;20042;-74
2021/03/12 02:57:06;;;;;;;5.82;2.78;;;12.60;96.70;;;;;;4999062;28;20038;-74
2021/03/12 02:59:34;;;;;;;5.25;2.25;;;12.60;96.70;;;;;;4998845;28;20053;-74
2021/03/12 03:02:02;;;;;;;4.53;2.42;;;12.60;96.70;;;;;;4997242;28;20038;-74
2021/03/12 03:04:38;;;;;;;5.05;2.47;;;12.60;96.70;;;;;;4990135;28;20041;-74
2021/03/12 03:07:15;;;;;;;9.25;2.58;;;12.60;96.70;;;;;;4978188;28;20125;-74
2021/03/12 03:09:45;;;;;;;5.03;2.15;;;12.50;96.70;;;;;;4980874;28;20294;-74
2021/03/12 03:12:16;;;;;;;5.45;2.65;;;12.50;96.70;;;;;;4999737;28;20080;-74
2021/03/12 03:14:48;;;;;;;5.43;2.50;;;12.60;96.70;;;;;;4995429;28;20481;-74
2021/03/12 03:17:18;;;;;;;4.20;2.63;;;12.60;96.70;;;;;;4998180;28;20051;-74
2021/03/12 03:19:48;;;;;;;6.82;2.50;;;12.50;96.70;;;;;;4999634;28;20117;-74
2021/03/12 03:22:17;;;;;;;7.30;2.70;;;12.40;96.70;;;;;;4996927;28;20500;-74
2021/03/12 03:24:44;;;;;;;7.97;2.60;;;12.40;96.70;;;;;;4979093;28;20457;-74
2021/03/12 03:27:12;;;;;;;4.57;2.50;;;12.30;96.70;;;;;;4996174;28;20574;-74
2021/03/12 03:29:42;;;;;;;5.82;2.33;;;12.30;96.70;;;;;;4997340;28;20034;-74
2021/03/12 03:32:13;;;;;;;7.57;2.92;;;12.40;96.70;;;;;;4982784;28;20078;-74
2021/03/12 03:34:41;;;;;;;5.32;2.65;;;12.40;96.70;;;;;;4995102;28;20092;-74
2021/03/12 03:37:09;;;;;;;5.30;2.42;;;12.40;96.70;;;;;;5000831;28;20040;-74
2021/03/12 03:39:38;;;;;;;5.45;2.50;;;12.40;96.70;;;;;;4996935;28;20049;-74
2021/03/12 03:42:09;;;;;;;7.60;2.63;;;12.40;96.70;;;;;;4998125;28;20042;-74
2021/03/12 03:44:39;;;;;;;6.57;2.83;;;12.40;96.70;;;;;;4996699;28;20041;-74
2021/03/12 03:47:09;;;;;;;3.80;2.30;;;12.50;96.70;;;;;;4987465;28;20046;-74
2021/03/12 03:49:41;;;;;;;4.35;2.25;;;12.50;96.70;;;;;;4998650;28;20053;-74
2021/03/12 03:52:10;;;;;;;6.20;2.55;;;12.50;96.70;;;;;;4998951;28;20068;-74
2021/03/12 03:54:50;;;;;;;4.20;2.20;;;12.40;96.70;;;;;;4995061;28;20053;-74
2021/03/12 03:57:21;;;;;;;6.95;2.45;;;12.50;96.70;;;;;;4989635;28;20042;-74
2021/03/12 03:59:50;;;;;;;5.22;2.75;;;12.50;96.70;;;;;;4996808;28;20041;-74
2021/03/12 04:02:20;;;;;;;5.40;2.40;;;12.50;96.70;;;;;;4994029;28;20034;-74
2021/03/12 04:04:51;;;;;;;5.95;3.05;;;12.50;96.70;;;;;;4982158;28;20054;-74
2021/03/12 04:07:23;;;;;;;5.22;2.92;;;12.50;96.70;;;;;;4995090;28;20053;-74
2021/03/12 04:09:55;;;;;;;4.68;2.63;;;12.50;96.70;;;;;;4996174;28;20034;-74
2021/03/12 04:12:26;;;;;;;6.80;3.20;;;12.50;96.70;;;;;;4981207;28;20387;-74
2021/03/12 04:14:58;;;;;;;7.07;2.95;;;12.50;96.70;;;;;;4993295;28;20045;-74
2021/03/12 04:17:26;;;;;;;5.47;2.67;;;12.40;96.70;;;;;;4996176;28;20088;-74
2021/03/12 04:19:55;;;;;;;6.30;2.67;;;12.30;96.70;;;;;;4999014;28;20049;-74
2021/03/12 04:22:23;;;;;;;5.45;2.42;;;12.30;96.70;;;;;;4993946;28;20251;-74
2021/03/12 04:24:51;;;;;;;6.15;2.55;;;12.30;96.70;;;;;;4995904;28;20133;-74
2021/03/12 04:27:23;;;;;;;8.40;3.15;;;12.30;96.70;;;;;;4992769;28;20411;-74
2021/03/12 04:29:51;;;;;;;5.93;2.92;;;12.30;96.70;;;;;;4995461;28;20060;-74
2021/03/12 04:32:19;;;;;;;6.90;3.00;;;12.20;96.70;;;;;;4976524;28;20065;-74
2021/03/12 04:34:48;;;;;;;6.25;3.40;;;12.20;96.70;;;;;;4992899;28;20042;-74
2021/03/12 04:37:20;;;;;;;6.90;2.80;;;12.20;96.70;;;;;;4994527;28;20053;-74
2021/03/12 04:39:48;;;;;;;8.82;3.20;;;12.20;96.70;;;;;;4994206;28;20103;-74
2021/03/12 04:42:19;;;;;;;8.68;3.78;;;12.20;96.70;;;;;;4977751;28;20045;-73
2021/03/12 04:45:04;;;;;;;6.18;3.08;;;12.30;96.70;;;;;;4975457;28;20054;-74
2021/03/12 04:47:32;;;;;;;7.10;2.97;;;12.30;96.70;;;;;;4994634;28;20073;-74
2021/03/12 04:50:01;;;;;;;9.40;3.80;;;12.40;96.70;;;;;;4995463;28;20053;-74
2021/03/12 04:52:29;;;;;;;7.05;3.60;;;12.30;96.70;;;;;;4992552;28;20511;-73
2021/03/12 04:54:57;;;;;;;6.95;3.83;;;12.20;96.70;;;;;;4994608;28;20045;-74
2021/03/12 04:57:27;;;;;;;4.38;3.28;;;12.20;96.70;;;;;;4987426;28;20567;-74
2021/03/12 04:59:55;;;;;;;8.38;3.33;;;12.20;96.70;;;;;;4994213;28;20148;-74
2021/03/12 05:02:26;;;;;;;7.43;3.20;;;12.20;96.70;;;;;;4975733;28;20049;-74
2021/03/12 05:05:00;;;;;;;6.57;3.25;;;12.30;96.70;;;;;;4989427;28;20217;-74
2021/03/12 05:07:30;;;;;;;5.90;3.60;;;12.40;96.70;;;;;;4993648;28;20053;-74
2021/03/12 05:10:08;;;;;;;7.43;3.40;;;12.40;96.70;;;;;;4994746;28;20054;-74
2021/03/12 05:12:36;;;;;;;6.90;3.17;;;12.40;96.70;;;;;;4998114;28;20121;-74
2021/03/12 05:15:26;;;;;;;7.20;3.22;;;12.40;96.70;;;;;;4992596;28;20061;-74
2021/03/12 05:17:53;;;;;;;8.45;3.40;;;12.40;96.70;;;;;;4993459;28;20037;-74
2021/03/12 05:20:21;;;;;;;6.18;3.20;;;12.40;96.70;;;;;;4991456;28;20046;-74
2021/03/12 05:22:50;;;;;;;7.63;3.00;;;12.50;96.70;;;;;;4995595;28;20578;-74
2021/03/12 05:25:18;;;;;;;6.43;2.88;;;12.50;96.70;;;;;;4995088;28;20042;-74
2021/03/12 05:27:45;;;;;;;8.80;3.28;;;12.50;96.70;;;;;;4993310;28;20042;-74
2021/03/12 05:30:14;;;;;;;6.25;2.90;;;12.50;96.70;;;;;;5001918;28;20052;-74
2021/03/12 05:32:41;;;;;;;9.18;3.15;;;12.50;96.70;;;;;;4997546;28;20421;-74
2021/03/12 05:35:12;;;;;;;5.18;3.00;;;12.50;96.70;;;;;;4989886;28;20558;-74
2021/03/12 05:37:39;;;;;;;5.95;3.10;;;12.60;96.70;;;;;;4986762;28;20794;-74
2021/03/12 05:40:09;;;;;;;8.05;3.25;;;12.60;96.70;;;;;;4997345;28;20046;-74
2021/03/12 05:42:42;;;;;;;6.03;3.72;;;12.50;96.70;;;;;;4991594;28;20226;-74
2021/03/12 05:45:12;;;;;;;10.55;3.35;;;12.50;96.70;;;;;;4994349;28;20514;-74
2021/03/12 05:47:51;;;;;;;5.47;2.90;;;12.50;96.70;;;;;;4989072;28;20041;-74
2021/03/12 05:50:20;;;;;;;7.70;3.67;;;12.50;96.70;;;;;;4990894;28;20046;-73
2021/03/12 05:52:48;;;;;;;6.22;2.83;;;12.50;96.70;;;;;;5010999;28;20035;-73
2021/03/12 05:55:20;;;;;;;7.93;3.10;;;12.50;96.70;;;;;;4994667;28;20037;-75
2021/03/12 05:57:48;;;;;;;11.73;3.40;;;12.50;96.70;;;;;;4995704;28;20065;-74
2021/03/12 06:00:17;;;;;;;6.30;2.55;;;12.50;96.70;;;;;;4991339;28;20081;-74
2021/03/12 06:02:49;;;;;;;6.40;2.85;;;12.50;96.70;;;;;;4990062;28;20036;-74
2021/03/12 06:05:29;;;;;;;8.20;3.28;;;12.50;96.70;;;;;;4995902;28;20164;-74
2021/03/12 06:07:56;;;;;;;5.95;2.88;;;12.50;96.70;;;;;;4994179;28;20053;-74
2021/03/12 06:10:26;;;;;;;7.60;3.75;;;12.60;96.70;;;;;;4997285;28;20085;-74
2021/03/12 06:12:58;;;;;;;5.70;3.05;;;12.60;96.70;;;;;;4994017;28;20817;-74
2021/03/12 06:15:34;;;;;;;13.90;4.43;;;12.60;96.70;;;;;;5000474;28;20125;-74
2021/03/12 06:18:14;;;;;;;7.13;3.08;;;12.60;96.70;;;;;;5015969;28;20049;-74
2021/03/12 06:20:43;;;;;;;7.95;3.03;;;12.60;96.70;;;;;;4996850;28;20053;-75
2021/03/12 06:23:11;;;;;;;6.47;2.75;;;12.60;96.70;;;;;;4979669;28;20045;-74
2021/03/12 06:25:52;;;;;;;8.35;3.60;;;12.70;96.70;;;;;;4999395;28;20080;-74
2021/03/12 06:28:23;;;;;;;7.53;2.65;;;12.80;96.70;;;;;;4995555;28;20044;-74
2021/03/12 06:31:00;;;;;;;7.65;3.28;;;12.80;96.70;;;;;;4996805;28;20045;-74
2021/03/12 06:33:47;;;;;;;5.88;3.20;;;12.80;96.70;;;;;;4985126;28;20145;-74
2021/03/12 06:36:29;;;;;;;6.40;3.03;;;12.80;96.70;;;;;;4993534;28;20061;-74
2021/03/12 06:39:10;;;;;;;6.15;3.50;;;12.80;96.70;;;;;;4997630;28;20594;-74
2021/03/12 06:41:46;;;;;;;6.35;3.65;;;12.80;96.70;;;;;;4983625;28;20732;-74
2021/03/12 06:44:30;;;;;;;7.88;3.40;;;12.80;96.70;;;;;;4997692;28;20037;-74
2021/03/12 06:47:00;;;;;;;7.25;3.92;;;12.80;96.70;;;;;;4997878;28;20381;-74
2021/03/12 06:49:30;;;;;;;6.40;3.70;;;12.80;96.70;;;;;;5001367;28;20476;-74
2021/03/12 06:52:11;;;;;;;6.63;3.20;;;12.80;96.70;;;;;;5000105;28;20692;-74
2021/03/12 06:54:53;;;;;;;6.97;3.38;;;12.80;96.70;;;;;;4997655;28;20460;-75
2021/03/12 06:57:36;;;;;;;6.07;3.08;;;12.80;96.70;;;;;;4993479;28;20074;-75
2021/03/12 07:00:12;;;;;;;10.02;3.65;;;12.80;96.70;;;;;;4985141;28;20074;-74
2021/03/12 07:02:43;;;;;;;7.22;3.53;;;12.80;96.70;;;;;;5004982;28;21357;-74
2021/03/12 07:05:17;;;;;;;8.75;3.53;;;12.80;96.70;;;;;;4998288;28;20046;-81
2021/03/12 07:07:50;;;;;;;9.48;4.05;;;12.80;96.70;;;;;;4996395;28;20041;-75
2021/03/12 07:10:35;;;;;;;8.45;3.33;;;12.80;96.70;;;;;;4994751;28;20535;-75
2021/03/12 07:13:13;;;;;;;9.70;3.53;;;12.80;96.70;;;;;;4993384;28;20042;-75
2021/03/12 07:15:45;;;;;;;6.95;3.35;;;12.80;96.70;;;;;;4995139;28;20041;-75
2021/03/12 07:18:21;;;;;;;11.05;4.32;;;12.80;96.70;;;;;;4997181;28;20133;-75
2021/03/12 07:20:53;;;;;;;13.32;4.68;;;12.80;96.70;;;;;;4994285;28;20574;-74
2021/03/12 07:23:27;;;;;;;12.38;5.07;;;12.70;96.70;;;;;;4998891;28;20034;-75
2021/03/12 07:25:58;;;;;;;12.35;4.88;;;12.70;96.70;;;;;;4992430;28;20120;-73
2021/03/12 07:28:30;;;;;;;9.00;4.22;;;12.70;96.70;;;;;;4994957;28;20045;-75
2021/03/12 07:31:09;;;;;;;11.57;4.70;;;12.70;96.70;;;;;;4995796;28;20617;-74
2021/03/12 07:33:41;;;;;;;14.43;5.28;;;12.70;96.70;;;;;;4990081;28;20552;-74
2021/03/12 07:36:13;;;;;;;11.40;4.93;;;12.80;96.70;;;;;;4995558;28;20058;-75
2021/03/12 07:38:48;;;;;;;11.10;5.45;;;12.80;96.70;;;;;;5013952;28;20050;-75
2021/03/12 07:41:23;;;;;;;15.35;5.75;;;12.80;96.70;;;;;;4999322;28;20034;-74
2021/03/12 07:44:06;;;;;;;12.15;4.70;;;12.70;96.70;;;;;;4980943;28;20451;-74
2021/03/12 07:46:41;;;;;;;11.75;5.72;;;12.70;96.70;;;;;;4995679;28;20041;-74
2021/03/12 07:49:33;;;;;;;14.35;4.93;;;12.70;96.70;;;;;;4990618;28;20552;-74
2021/03/12 07:52:07;;;;;;;15.35;6.22;;;12.70;96.70;;;;;;4991195;28;20523;-76
2021/03/12 07:54:51;;;;;;;15.63;6.80;;;12.70;96.70;;;;;;4975503;28;20042;-75
2021/03/12 07:57:40;;;;;;;17.27;7.63;;;12.70;96.70;;;;;;4992949;28;20185;-76
2021/03/12 08:00:20;;;;;;;16.73;9.18;;;12.70;96.70;;;;;;4999114;28;20313;-76
2021/03/12 08:03:08;;;;;;;14.40;8.40;;;12.70;96.70;;;;;;4994290;28;20052;-75
2021/03/12 08:05:45;;;;;;;14.00;8.40;;;12.70;96.70;;;;;;4994162;28;20041;-75
2021/03/12 08:08:34;;;;;;;15.88;9.43;;;12.70;96.70;;;;;;4994686;28;20054;-76
2021/03/12 08:11:21;;;;;;;18.10;10.13;;;12.60;96.70;;;;;;4994244;28;20446;-75
2021/03/12 08:14:12;;;;;;;19.92;10.52;;;12.60;96.70;;;;;;4994043;28;20504;-76
2021/03/12 08:17:10;;;;;;;22.27;12.20;;;12.60;96.70;;;;;;4981129;28;20056;-75
2021/03/12 08:19:49;;;;;;;19.67;11.95;;;12.60;96.70;;;;;;5007891;28;20041;-75
2021/03/12 08:22:42;;;;;;;23.15;11.70;;;12.60;96.70;;;;;;4996074;28;20340;-75
2021/03/12 08:25:43;;;;;;;24.58;13.02;;;12.70;96.70;;;;;;4994940;28;20086;-75
2021/03/12 08:28:26;;;;;;;21.17;12.65;;;12.70;96.70;;;;;;5015546;28;20117;-75
2021/03/12 08:31:07;;;;;;;23.67;12.13;;;12.70;96.70;;;;;;4982080;28;20227;-76
2021/03/12 08:33:49;;;;;;;23.80;12.80;;;12.80;96.70;;;;;;4997404;28;20173;-76
2021/03/12 08:36:27;;;;;;;28.95;15.95;;;12.70;96.70;;;;;;5001205;28;20030;-76
2021/03/12 08:39:25;;;;;;;20.52;13.15;;;12.70;96.70;;;;;;4992724;28;20825;-75
2021/03/12 08:42:07;;;;;;;26.60;13.65;;;12.70;96.70;;;;;;4988691;28;20466;-76
2021/03/12 08:44:44;;;;;;;26.45;14.13;;;12.80;96.70;;;;;;4993261;28;20056;-75
2021/03/12 08:47:18;;;;;;;22.38;14.05;;;12.80;96.70;;;;;;4995315;28;20049;-75
2021/03/12 08:49:50;;;;;;;22.13;13.50;;;12.90;96.70;;;;;;4995874;28;20046;-76
2021/03/12 08:52:25;;;;;;;24.67;13.50;;;12.90;96.70;;;;;;4991972;28;20034;-74
2021/03/12 08:55:01;;;;;;;22.25;11.77;;;12.90;96.70;;;;;;4994214;28;20084;-75
2021/03/12 08:57:31;;;;;;;25.02;12.57;;;12.90;96.70;;;;;;4974211;28;20119;-73
2021/03/12 09:00:10;;;;;;;16.60;11.48;;;12.90;96.70;;;;;;4994551;28;20046;-75
2021/03/12 09:02:47;;;;;;;20.02;11.32;;;13.00;96.70;;;;;;4995281;28;20133;-75
2021/03/12 09:05:25;;;;;;;18.75;10.55;;;13.10;96.70;;;;;;4979150;28;20532;-76
2021/03/12 09:08:07;;;;;;;18.83;10.85;;;13.20;96.70;;;;;;5007767;28;20046;-76
2021/03/12 09:10:46;;;;;;;17.40;9.55;;;13.30;96.70;;;;;;4991004;28;20499;-76
2021/03/12 09:13:26;;;;;;;21.60;10.07;;;13.50;96.70;;;;;;4992483;28;20104;-75
2021/03/12 09:15:55;;;;;;;14.65;8.68;;;13.40;96.70;;;;;;4992270;28;20548;-75
2021/03/12 09:18:39;;;;;;;18.52;9.63;;;13.50;96.70;;;;;;4995726;28;20173;-74
2021/03/12 09:21:18;;;;;;;16.65;9.88;;;13.50;96.70;;;;;;4997445;28;20045;-75
2021/03/12 09:23:49;;;;;;;19.17;9.20;;;13.60;96.70;;;;;;4996370;28;20065;-74
2021/03/12 09:26:19;;;;;;;16.70;8.50;;;13.70;96.70;;;;;;4986071;28;20419;-75
2021/03/12 09:28:57;;;;;;;14.70;8.75;;;13.80;96.70;;;;;;4994317;28;20045;-75
2021/03/12 09:31:30;;;;;;;14.10;7.65;;;13.90;96.70;;;;;;4984787;28;20061;-75
2021/03/12 09:34:12;;;;;;;12.00;7.68;;;13.90;96.70;;;;;;4986281;28;20042;-75
2021/03/12 09:36:47;;;;;;;17.20;8.75;;;14.00;96.70;;;;;;4995198;28;20040;-74
2021/03/12 09:39:26;;;;;;;16.88;8.30;;;14.20;96.70;;;;;;4997529;28;20033;-76
2021/03/12 09:42:03;;;;;;;16.08;9.13;;;14.30;96.70;;;;;;4991412;28;20085;-75
2021/03/12 09:44:39;;;;;;;13.55;7.20;;;14.40;96.70;;;;;;4992697;28;20510;-76
2021/03/12 09:47:13;;;;;;;19.50;8.15;;;14.40;96.70;;;;;;4993858;28;20030;-76
2021/03/12 09:49:51;;;;;;;11.13;6.38;;;14.50;96.70;;;;;;4989517;28;20045;-75
2021/03/12 09:52:32;;;;;;;16.90;7.18;;;14.50;96.70;;;;;;4977470;28;20084;-75
2021/03/12 09:55:14;;;;;;;15.07;7.07;;;14.60;96.70;;;;;;5014296;28;20424;-74
2021/03/12 09:57:42;;;;;;;13.02;6.85;;;14.80;96.70;;;;;;4994205;28;20124;-74
2021/03/12 10:00:23;;;;;;;12.90;6.20;;;14.80;96.70;;;;;;4990580;28;20029;-74
2021/03/12 10:02:57;;;;;;;14.45;5.88;;;15.00;96.70;;;;;;4990599;28;20499;-74
2021/03/12 10:05:45;;;;;;;10.15;5.38;;;15.00;96.70;;;;;;4997577;28;20050;-74
2021/03/12 10:08:17;;;;;;;13.63;5.80;;;15.10;96.70;;;;;;4995833;28;20050;-74
2021/03/12 10:11:05;;;;;;;10.00;4.93;;;15.10;96.70;;;;;;4986669;28;20518;-75
2021/03/12 10:13:47;;;;;;;12.38;5.20;;;15.10;96.70;;;;;;4992764;28;20631;-77
2021/03/12 10:16:27;;;;;;;12.02;5.35;;;15.10;96.70;;;;;;5004434;28;20050;-74
2021/03/12 10:19:00;;;;;;;12.80;5.63;;;15.00;96.70;;;;;;5001090;28;20515;-74
2021/03/12 10:21:30;;;;;;;14.35;5.55;;;15.00;96.70;;;;;;5001356;28;20050;-75
2021/03/12 10:23:57;;;;;;;11.05;4.43;;;15.00;96.70;;;;;;4995299;28;20054;-73
2021/03/12 10:26:28;;;;;;;12.95;5.00;;;15.00;96.70;;;;;;4997915;28;20275;-72
2021/03/12 10:28:57;;;;;;;48.38;38.08;;;15.10;96.70;;;;;;4999346;28;20123;-78
2021/03/12 10:31:24;;;;;;;29.48;17.50;;;15.20;96.70;;;;;;5001575;28;20037;-73
2021/03/12 10:33:52;;;;;;;13.93;7.20;;;15.30;96.70;;;;;;4994738;28;20049;-74
2021/03/12 10:36:20;;;;;;;16.70;8.00;;;15.50;96.70;;;;;;4992975;28;20858;-74
2021/03/12 10:38:50;;;;;;;14.02;7.60;;;15.80;96.70;;;;;;5001371;28;20042;-75
2021/03/12 10:41:24;;;;;;;11.23;7.05;;;16.00;96.70;;;;;;4998136;28;20543;-75
2021/03/12 10:43:57;;;;;;;12.90;5.85;;;16.10;96.70;;;;;;4997720;28;20132;-75
2021/03/12 10:46:25;;;;;;;10.85;5.15;;;16.20;96.70;;;;;;4992945;28;20389;-75
2021/03/12 10:48:53;;;;;;;16.85;6.50;;;16.40;96.70;;;;;;4977766;28;20041;-76
2021/03/12 10:51:21;;;;;;;15.85;7.65;;;16.70;96.70;;;;;;4999150;28;20038;-76
2021/03/12 10:53:50;;;;;;;20.27;10.65;;;16.80;96.70;;;;;;4998575;28;20129;-75
2021/03/12 10:56:18;;;;;;;13.77;6.70;;;16.70;96.70;;;;;;4991914;28;20586;-73
2021/03/12 10:58:50;;;;;;;15.65;6.63;;;16.80;96.70;;;;;;4995497;28;20042;-74
2021/03/12 11:04:01;;;;;;;16.52;7.90;;;17.00;96.70;;;;;;4996352;28;20058;-75
2021/03/12 11:06:31;;;;;;;14.82;7.03;;;17.00;96.70;;;;;;4995308;28;20058;-75
2021/03/12 11:09:03;;;;;;;13.27;5.90;;;17.20;96.70;;;;;;4984184;28;20456;-75
2021/03/12 11:11:34;;;;;;;15.07;6.57;;;17.50;96.30;;;;;;4993491;28;20081;-75
2021/03/12 11:14:03;;;;;;;15.27;7.05;;;17.50;95.20;;;;;;4996824;28;20049;-74
2021/03/12 11:16:33;;;;;;;12.48;7.07;;;17.60;95.10;;;;;;4992395;28;20046;-76
2021/03/12 11:19:01;;;;;;;13.85;8.60;;;17.60;95.00;;;;;;5000767;28;20403;-76
2021/03/12 11:21:33;;;;;;;13.20;6.80;;;17.70;94.90;;;;;;4993422;28;20038;-76
2021/03/12 11:24:01;;;;;;;14.20;6.00;;;17.70;94.60;;;;;;4998057;28;20038;-74
2021/03/12 11:26:28;;;;;;;9.75;6.00;;;17.60;94.80;;;;;;4997983;28;20136;-75
2021/03/12 11:28:57;;;;;;;15.85;6.68;;;17.60;95.10;;;;;;4992838;28;20078;-75
2021/03/12 11:31:25;;;;;;;14.57;6.65;;;17.60;94.50;;;;;;4998984;28;20046;-76
2021/03/12 11:33:56;;;;;;;10.23;4.93;;;17.60;94.10;;;;;;4980619;28;20050;-76
2021/03/12 11:36:25;;;;;;;10.65;4.40;;;17.70;93.60;;;;;;5000682;28;20042;-76
2021/03/12 11:38:53;;;;;;;15.05;6.13;;;17.70;93.30;;;;;;4994494;28;20052;-75
2021/03/12 11:41:22;;;;;;;13.07;6.70;;;17.80;93.10;;;;;;4995816;28;20407;-74
2021/03/12 11:43:50;;;;;;;11.85;5.38;;;18.00;92.60;;;;;;4995447;28;20256;-74
2021/03/12 11:46:17;;;;;;;8.35;4.88;;;18.30;92.00;;;;;;4995992;28;20363;-74
2021/03/12 11:48:47;;;;;;;9.07;4.05;;;18.50;90.80;;;;;;4996092;28;20062;-75
2021/03/12 11:51:16;;;;;;;12.77;4.25;;;18.40;90.60;;;;;;4997452;28;20041;-74
2021/03/12 11:53:46;;;;;;;8.45;3.10;;;18.50;90.20;;;;;;4993550;28;20092;-74
2021/03/12 11:56:15;;;;;;;10.23;3.88;;;18.60;87.60;;;;;;5012854;28;20140;-75
2021/03/12 11:58:43;;;;;;;9.13;3.25;;;18.70;86.20;;;;;;4996565;28;20046;-75
2021/03/12 12:01:11;;;;;;;8.52;3.58;;;18.80;86.30;;;;;;4982919;28;20046;-75
2021/03/12 12:03:41;;;;;;;5.18;2.38;;;18.80;85.70;;;;;;4998840;28;20041;-75
2021/03/12 12:06:10;;;;;;;6.40;2.35;;;18.80;86.30;;;;;;4991061;28;20042;-76
2021/03/12 12:08:41;;;;;;;8.45;2.97;;;18.90;86.10;;;;;;4998985;28;20132;-76
2021/03/12 12:11:09;;;;;;;6.03;2.08;;;19.00;85.90;;;;;;4989074;28;20096;-73
2021/03/12 12:13:39;;;;;;;7.57;1.85;;;19.10;84.70;;;;;;5000588;28;20444;-74
2021/03/12 12:16:12;;;;;;;4.97;1.90;;;19.00;84.10;;;;;;4992422;28;20045;-73
2021/03/12 12:18:44;;;;;;;7.35;1.58;;;19.10;83.90;;;;;;4992060;28;20065;-75
2021/03/12 12:21:14;;;;;;;5.95;1.65;;;19.10;83.10;;;;;;4988003;28;20057;-74
2021/03/12 12:23:43;;;;;;;4.03;1.40;;;19.30;83.20;;;;;;4991606;28;20077;-72
2021/03/12 12:26:10;;;;;;;4.57;1.25;;;19.10;83.00;;;;;;4971075;28;20519;-73
2021/03/12 12:28:38;;;;;;;7.28;1.98;;;19.00;84.00;;;;;;4973356;28;20412;-74
2021/03/12 12:31:06;;;;;;;6.85;1.50;;;19.00;83.00;;;;;;4971123;28;20512;-73
2021/03/12 12:33:34;;;;;;;6.50;1.80;;;18.90;83.10;;;;;;4989866;28;20044;-74
2021/03/12 12:36:02;;;;;;;5.10;1.63;;;18.90;83.70;;;;;;4993635;28;20512;-73
2021/03/12 12:38:30;;;;;;;5.13;1.45;;;18.80;84.20;;;;;;4988981;28;20459;-74
2021/03/12 12:40:58;;;;;;;4.05;1.70;;;18.60;83.80;;;;;;4992416;28;20038;-74
2021/03/12 12:43:32;;;;;;;4.82;1.80;;;18.60;83.90;;;;;;4990182;28;20054;-74
2021/03/12 12:46:01;;;;;;;6.47;2.00;;;18.60;84.30;;;;;;4992800;28;20512;-74
2021/03/12 12:48:29;;;;;;;10.02;1.75;;;18.60;83.70;;;;;;4996708;28;20157;-74
2021/03/12 12:51:15;;;;;;;6.30;1.65;;;18.60;83.30;;;;;;4994832;28;20045;-74
2021/03/12 12:53:52;;;;;;;5.00;1.42;;;18.50;83.20;;;;;;4979478;28;20142;-74
2021/03/12 12:56:34;;;;;;;5.45;2.60;;;18.40;83.20;;;;;;4993843;28;20053;-75
2021/03/12 12:59:06;;;;;;;17.88;8.02;;;18.30;83.40;;;;;;4997577;28;20081;-73
2021/03/12 13:01:33;;;;;;;10.93;6.35;;;18.30;82.00;;;;;;4988752;28;20042;-77
2021/03/12 13:04:02;;;;;;;11.70;5.68;;;18.30;82.30;;;;;;4979656;28;20779;-74
2021/03/12 13:06:30;;;;;;;13.65;7.20;;;18.30;82.20;;;;;;4994920;28;20046;-76
2021/03/12 13:08:58;;;;;;;12.80;6.95;;;18.20;82.00;;;;;;4995330;28;20054;-73
2021/03/12 13:11:25;;;;;;;6.53;2.80;;;18.10;82.20;;;;;;4991901;28;20052;-74